createdAt,value
2018-07-14T00:00:10.527Z,27.47
2018-07-14T00:02:39.407Z,18.60
2018-07-14T00:05:08.238Z,20.57
2018-07-14T00:07:36.965Z,28.90
2018-07-14T00:10:05.821Z,35.00
2018-07-14T00:12:34.531Z,27.73
2018-07-14T00:15:03.250Z,38.87
2018-07-14T00:17:31.975Z,47.13
2018-07-14T00:20:00.734Z,26.23
2018-07-14T00:22:29.450Z,25.50
2018-07-14T00:24:58.224Z,34.37
2018-07-14T00:27:26.941Z,28.63
2018-07-14T00:29:55.658Z,32.40
2018-07-14T00:32:24.394Z,28.50
2018-07-14T00:34:53.096Z,34.83
2018-07-14T00:37:21.842Z,29.80
2018-07-14T00:39:50.565Z,39.47
2018-07-14T00:42:19.245Z,27.50
2018-07-14T00:44:48.015Z,29.00
2018-07-14T00:47:16.742Z,22.83
2018-07-14T00:49:45.441Z,21.07
2018-07-14T00:52:14.156Z,29.17
2018-07-14T00:54:42.906Z,24.97
2018-07-14T00:57:11.658Z,20.90
2018-07-14T00:59:40.375Z,28.63
2018-07-14T01:02:09.192Z,24.60
2018-07-14T01:04:37.897Z,23.80
2018-07-14T01:07:06.585Z,29.43
2018-07-14T01:09:35.312Z,20.60
2018-07-14T01:12:04.042Z,16.43
2018-07-14T01:14:32.761Z,21.80
2018-07-14T01:17:01.468Z,26.80
2018-07-14T01:19:30.182Z,28.03
2018-07-14T01:21:58.953Z,25.27
2018-07-14T01:24:27.648Z,23.13
2018-07-14T01:26:56.389Z,16.50
2018-07-14T01:29:25.199Z,38.33
2018-07-14T01:31:53.941Z,32.30
2018-07-14T01:34:22.709Z,20.53
2018-07-14T01:36:51.401Z,23.13
2018-07-14T01:39:20.245Z,19.70
2018-07-14T01:41:49.073Z,17.70
2018-07-14T01:44:17.786Z,13.80
2018-07-14T01:46:46.489Z,15.40
2018-07-14T01:49:15.191Z,17.90
2018-07-14T01:51:43.905Z,14.50
2018-07-14T01:54:12.658Z,13.77
2018-07-14T01:56:41.348Z,24.07
2018-07-14T01:59:10.072Z,14.30
2018-07-14T02:01:38.785Z,17.90
2018-07-14T02:04:07.502Z,15.90
2018-07-14T02:06:36.221Z,14.40
2018-07-14T02:09:05.674Z,20.23
2018-07-14T02:11:34.428Z,27.10
2018-07-14T02:14:03.180Z,17.07
2018-07-14T02:16:31.908Z,14.00
2018-07-14T02:19:00.805Z,17.73
2018-07-14T02:21:29.508Z,18.67
2018-07-14T02:23:58.213Z,16.17
2018-07-14T02:26:26.952Z,15.77
2018-07-14T02:28:55.654Z,14.63
2018-07-14T02:31:24.491Z,11.83
2018-07-14T02:33:53.210Z,14.33
2018-07-14T02:36:21.913Z,13.13
2018-07-14T02:38:50.673Z,21.00
2018-07-14T02:41:19.397Z,18.30
2018-07-14T02:43:48.158Z,22.00
2018-07-14T02:46:16.922Z,12.57
2018-07-14T02:48:45.631Z,24.43
2018-07-14T02:51:14.332Z,15.53
2018-07-14T02:53:43.071Z,15.43
2018-07-14T02:56:11.801Z,26.07
2018-07-14T02:58:40.537Z,20.30
2018-07-14T03:01:09.260Z,22.03
2018-07-14T03:03:37.974Z,12.87
2018-07-14T03:06:06.733Z,30.93
2018-07-14T03:08:35.559Z,11.73
2018-07-14T03:11:04.320Z,16.83
2018-07-14T03:13:33.049Z,15.60
2018-07-14T03:16:01.799Z,8.60
2018-07-14T03:18:30.493Z,13.87
2018-07-14T03:20:59.253Z,16.40
2018-07-14T03:23:27.971Z,11.30
2018-07-14T03:25:56.678Z,12.20
2018-07-14T03:28:25.404Z,17.63
2018-07-14T03:30:54.342Z,21.00
2018-07-14T03:33:23.074Z,10.87
2018-07-14T03:35:52.291Z,16.13
2018-07-14T03:38:21.049Z,12.33
2018-07-14T03:40:49.897Z,9.80
2018-07-14T03:43:19.189Z,12.57
2018-07-14T03:45:47.936Z,23.03
2018-07-14T03:48:16.677Z,13.33
2018-07-14T03:50:45.417Z,15.67
2018-07-14T03:53:14.139Z,12.80
2018-07-14T03:55:42.870Z,11.77
2018-07-14T03:58:11.765Z,7.40
2018-07-14T04:00:40.486Z,13.53
2018-07-14T04:03:09.221Z,12.60
2018-07-14T04:05:37.958Z,14.17
2018-07-14T04:08:06.691Z,10.83
2018-07-14T04:10:35.563Z,14.37
2018-07-14T04:13:04.286Z,10.83
2018-07-14T04:15:33.015Z,10.70
2018-07-14T04:18:04.893Z,11.87
2018-07-14T04:20:36.307Z,7.20
2018-07-14T04:23:05.077Z,12.77
2018-07-14T04:25:33.933Z,12.23
2018-07-14T04:28:03.009Z,16.87
2018-07-14T04:30:31.693Z,8.23
2018-07-14T04:33:00.428Z,22.90
2018-07-14T04:35:29.193Z,8.13
2018-07-14T04:37:57.972Z,7.03
2018-07-14T04:40:26.698Z,15.23
2018-07-14T04:42:55.469Z,12.63
2018-07-14T04:45:24.194Z,16.43
2018-07-14T04:47:53.035Z,37.37
2018-07-14T04:50:21.761Z,11.47
2018-07-14T04:52:50.495Z,27.17
2018-07-14T04:55:19.189Z,19.43
2018-07-14T04:57:47.922Z,8.10
2018-07-14T05:00:16.665Z,14.10
2018-07-14T05:02:45.450Z,6.60
2018-07-14T05:05:14.627Z,12.40
2018-07-14T05:07:43.340Z,16.23
2018-07-14T05:10:12.051Z,14.40
2018-07-14T05:12:40.813Z,17.80
2018-07-14T05:15:09.543Z,14.93
2018-07-14T05:17:38.369Z,16.47
2018-07-14T05:20:07.311Z,7.30
2018-07-14T05:22:36.063Z,13.20
2018-07-14T05:25:04.863Z,6.97
2018-07-14T05:27:33.583Z,15.87
2018-07-14T05:30:02.319Z,11.33
2018-07-14T05:32:31.088Z,7.17
2018-07-14T05:34:59.821Z,16.87
2018-07-14T05:37:28.559Z,21.43
2018-07-14T05:39:57.269Z,6.93
2018-07-14T05:42:25.993Z,13.43
2018-07-14T05:44:54.697Z,4.17
2018-07-14T05:47:23.398Z,3.90
2018-07-14T05:49:52.154Z,5.80
2018-07-14T05:52:20.898Z,7.93
2018-07-14T05:54:49.626Z,6.50
2018-07-14T05:57:18.343Z,13.73
2018-07-14T05:59:47.048Z,8.10
2018-07-14T06:02:15.809Z,9.90
2018-07-14T06:04:44.530Z,9.30
2018-07-14T06:07:13.416Z,11.57
2018-07-14T06:09:42.131Z,14.17
2018-07-14T06:12:10.860Z,7.93
2018-07-14T06:14:39.633Z,8.13
2018-07-14T06:17:08.404Z,3.57
2018-07-14T06:19:37.198Z,4.90
2018-07-14T06:22:05.908Z,8.13
2018-07-14T06:24:34.650Z,14.90
2018-07-14T06:27:03.427Z,6.60
2018-07-14T06:29:32.184Z,12.93
2018-07-14T06:32:00.931Z,12.83
2018-07-14T06:34:29.669Z,13.70
2018-07-14T06:36:58.401Z,14.63
2018-07-14T06:39:27.124Z,10.37
2018-07-14T06:41:55.850Z,4.70
2018-07-14T06:44:24.565Z,9.77
2018-07-14T06:46:53.478Z,11.27
2018-07-14T06:49:22.232Z,10.23
2018-07-14T06:51:51.138Z,8.93
2018-07-14T06:54:19.895Z,3.57
2018-07-14T06:56:48.678Z,13.70
2018-07-14T06:59:18.481Z,15.07
2018-07-14T07:01:47.243Z,11.60
2018-07-14T07:04:15.993Z,20.43
2018-07-14T07:06:45.053Z,4.43
2018-07-14T07:09:13.795Z,4.33
2018-07-14T07:11:42.569Z,4.67
2018-07-14T07:14:11.290Z,2.70
2018-07-14T07:16:40.055Z,4.50
2018-07-14T07:19:08.765Z,10.10
2018-07-14T07:21:37.457Z,5.50
2018-07-14T07:24:06.403Z,9.80
2018-07-14T07:26:35.311Z,10.53
2018-07-14T07:29:04.091Z,2.83
2018-07-14T07:31:32.794Z,7.40
2018-07-14T07:34:01.599Z,3.83
2018-07-14T07:36:30.452Z,8.37
2018-07-14T07:38:59.475Z,2.53
2018-07-14T07:41:28.195Z,4.00
2018-07-14T07:43:56.914Z,6.67
2018-07-14T07:46:25.832Z,16.70
2018-07-14T07:48:54.587Z,15.10
2018-07-14T07:51:23.299Z,9.23
2018-07-14T07:53:52.002Z,7.80
2018-07-14T07:56:20.702Z,3.57
2018-07-14T07:58:49.436Z,4.03
2018-07-14T08:01:18.170Z,17.90
2018-07-14T08:03:46.880Z,6.80
2018-07-14T08:06:15.596Z,11.70
2018-07-14T08:08:44.342Z,19.93
2018-07-14T08:11:13.039Z,10.30
2018-07-14T08:13:41.773Z,3.60
2018-07-14T08:16:10.543Z,6.50
2018-07-14T08:18:39.233Z,6.53
2018-07-14T08:21:08.055Z,11.33
2018-07-14T08:23:36.786Z,5.80
2018-07-14T08:26:05.596Z,6.63
2018-07-14T08:28:34.320Z,2.37
2018-07-14T08:31:03.010Z,2.60
2018-07-14T08:33:31.729Z,5.90
2018-07-14T08:36:00.460Z,13.43
2018-07-14T08:38:29.225Z,6.03
2018-07-14T08:40:57.933Z,3.72
2018-07-14T08:43:26.650Z,2.58
2018-07-14T08:45:55.371Z,2.22
2018-07-14T08:48:24.253Z,5.87
2018-07-14T08:50:53.001Z,6.45
2018-07-14T08:53:21.732Z,7.05
2018-07-14T08:55:50.459Z,2.47
2018-07-14T08:58:21.487Z,3.75
2018-07-14T09:00:50.318Z,2.58
2018-07-14T09:03:19.072Z,7.42
2018-07-14T09:05:47.799Z,3.17
2018-07-14T09:08:16.519Z,4.75
2018-07-14T09:10:45.474Z,1.90
2018-07-14T09:13:14.176Z,2.20
2018-07-14T09:15:42.934Z,8.65
2018-07-14T09:18:11.671Z,3.52
2018-07-14T09:20:40.458Z,5.55
2018-07-14T09:23:09.188Z,7.15
2018-07-14T09:25:37.928Z,7.08
2018-07-14T09:28:06.908Z,2.25
2018-07-14T09:30:35.738Z,1.98
2018-07-14T09:33:04.598Z,6.17
2018-07-14T09:35:33.382Z,2.58
2018-07-14T09:38:02.157Z,17.37
2018-07-14T09:40:30.866Z,6.73
2018-07-14T09:42:59.594Z,8.75
2018-07-14T09:45:28.372Z,7.77
2018-07-14T09:47:57.961Z,4.63
2018-07-14T09:50:26.678Z,2.08
2018-07-14T09:52:55.402Z,2.05
2018-07-14T09:55:24.112Z,6.55
2018-07-14T09:57:52.908Z,6.10
2018-07-14T10:00:26.749Z,4.97
2018-07-14T10:02:55.453Z,1.92
2018-07-14T10:05:24.205Z,5.90
2018-07-14T10:07:52.920Z,22.67
2018-07-14T10:10:21.617Z,2.02
2018-07-14T10:12:50.355Z,3.42
2018-07-14T10:15:19.098Z,4.90
2018-07-14T10:17:47.869Z,2.98
2018-07-14T10:20:16.580Z,2.45
2018-07-14T10:22:45.284Z,8.78
2018-07-14T10:25:14.056Z,7.62
2018-07-14T10:27:42.949Z,2.08
2018-07-14T10:30:11.689Z,5.62
2018-07-14T10:32:40.434Z,1.98
2018-07-14T10:35:09.163Z,1.92
2018-07-14T10:37:37.891Z,2.15
2018-07-14T10:40:06.653Z,6.37
2018-07-14T10:42:35.463Z,9.98
2018-07-14T10:45:04.381Z,2.47
2018-07-14T10:47:33.118Z,11.97
2018-07-14T10:50:01.852Z,5.78
2018-07-14T10:52:30.596Z,2.08
2018-07-14T10:54:59.349Z,1.77
2018-07-14T10:57:28.070Z,3.30
2018-07-14T10:59:56.783Z,1.65
2018-07-14T11:02:25.494Z,6.42
2018-07-14T11:04:54.208Z,1.92
2018-07-14T11:07:22.974Z,7.42
2018-07-14T11:09:51.697Z,3.20
2018-07-14T11:12:20.405Z,1.80
2018-07-14T11:14:49.126Z,5.67
2018-07-14T11:17:17.850Z,1.52
2018-07-14T11:19:46.600Z,1.42
2018-07-14T11:22:15.314Z,6.40
2018-07-14T11:24:44.015Z,10.45
2018-07-14T11:27:12.730Z,6.50
2018-07-14T11:29:41.451Z,4.08
2018-07-14T11:32:10.188Z,7.17
2018-07-14T11:34:38.899Z,1.85
2018-07-14T11:37:07.618Z,1.30
2018-07-14T11:39:36.561Z,15.28
2018-07-14T11:42:05.709Z,5.08
2018-07-14T11:44:34.465Z,4.00
2018-07-14T11:47:03.469Z,6.62
2018-07-14T11:49:32.381Z,1.98
2018-07-14T11:52:01.537Z,2.15
2018-07-14T11:54:30.757Z,4.08
2018-07-14T11:56:59.502Z,4.33
2018-07-14T11:59:28.222Z,2.30
2018-07-14T12:01:57.008Z,2.65
2018-07-14T12:04:25.711Z,3.80
2018-07-14T12:06:54.434Z,3.35
2018-07-14T12:09:23.169Z,1.62
2018-07-14T12:11:51.887Z,1.30
2018-07-14T12:14:20.610Z,1.90
2018-07-14T12:16:49.350Z,9.83
2018-07-14T12:19:18.086Z,1.98
2018-07-14T12:21:46.800Z,1.82
2018-07-14T12:24:15.526Z,1.40
2018-07-14T12:26:44.298Z,7.87
2018-07-14T12:29:12.993Z,9.20
2018-07-14T12:31:41.718Z,4.53
2018-07-14T12:34:10.565Z,5.73
2018-07-14T12:36:39.505Z,3.03
2018-07-14T12:39:08.321Z,3.80
2018-07-14T12:41:37.045Z,5.77
2018-07-14T12:44:05.779Z,2.27
2018-07-14T12:46:34.557Z,5.77
2018-07-14T12:49:03.332Z,2.93
2018-07-14T12:51:32.130Z,2.20
2018-07-14T12:54:00.871Z,6.73
2018-07-14T12:56:29.594Z,2.30
2018-07-14T12:58:58.350Z,5.27
2018-07-14T13:01:27.062Z,3.27
2018-07-14T13:03:55.791Z,2.40
2018-07-14T13:06:24.539Z,9.47
2018-07-14T13:08:53.289Z,3.50
2018-07-14T13:11:22.025Z,2.97
2018-07-14T13:13:50.815Z,8.63
2018-07-14T13:16:19.534Z,4.50
2018-07-14T13:18:48.282Z,17.03
2018-07-14T13:21:17.141Z,7.77
2018-07-14T13:23:45.917Z,3.30
2018-07-14T13:26:14.669Z,5.63
2018-07-14T13:28:43.366Z,5.87
2018-07-14T13:31:12.131Z,4.00
2018-07-14T13:33:40.866Z,2.57
2018-07-14T13:36:09.621Z,4.80
2018-07-14T13:38:38.345Z,16.63
2018-07-14T13:41:07.103Z,8.33
2018-07-14T13:43:35.925Z,7.67
2018-07-14T13:46:04.650Z,5.47
2018-07-14T13:48:33.369Z,7.93
2018-07-14T13:51:02.146Z,6.57
2018-07-14T13:53:31.162Z,7.10
2018-07-14T13:55:59.947Z,12.20
2018-07-14T13:58:29.927Z,5.60
2018-07-14T14:00:58.723Z,2.97
2018-07-14T14:03:27.445Z,5.83
2018-07-14T14:08:58.641Z,3.70
2018-07-14T14:11:28.286Z,2.80
2018-07-14T14:13:57.052Z,3.00
2018-07-14T14:16:25.782Z,5.47
2018-07-14T14:18:54.513Z,4.03
2018-07-14T14:21:23.266Z,26.80
2018-07-14T14:23:52.013Z,15.90
2018-07-14T14:26:21.410Z,9.07
2018-07-14T14:28:50.236Z,7.50
2018-07-14T14:31:18.958Z,3.30
2018-07-14T14:33:47.738Z,3.03
2018-07-14T14:36:16.531Z,6.40
2018-07-14T14:38:45.538Z,3.33
2018-07-14T14:41:14.261Z,6.60
2018-07-14T14:43:43.052Z,5.33
2018-07-14T14:46:11.794Z,3.30
2018-07-14T14:48:40.562Z,4.87
2018-07-14T14:51:09.366Z,4.30
2018-07-14T14:53:38.097Z,3.93
2018-07-14T14:56:07.084Z,3.00
2018-07-14T14:58:35.850Z,20.60
2018-07-14T15:01:05.473Z,2.70
2018-07-14T15:03:34.481Z,4.10
2018-07-14T15:06:03.343Z,8.03
2018-07-14T15:08:32.160Z,9.40
2018-07-14T15:11:00.891Z,6.60
2018-07-14T15:13:29.882Z,6.27
2018-07-14T15:15:58.627Z,6.77
2018-07-14T15:18:27.724Z,15.93
2018-07-14T15:20:56.502Z,23.80
2018-07-14T15:23:25.998Z,16.17
2018-07-14T15:25:54.817Z,15.10
2018-07-14T15:28:23.573Z,18.77
2018-07-14T15:30:52.950Z,8.20
2018-07-14T15:33:21.900Z,11.60
2018-07-14T15:35:50.651Z,11.07
2018-07-14T15:38:19.434Z,9.53
2018-07-14T15:40:48.171Z,11.43
2018-07-14T15:43:16.975Z,9.80
2018-07-14T15:45:45.730Z,10.87
2018-07-14T15:48:14.523Z,7.10
2018-07-14T15:50:43.282Z,6.97
2018-07-14T15:53:12.142Z,9.23
2018-07-14T15:55:40.912Z,7.43
2018-07-14T15:58:09.671Z,9.77
2018-07-14T16:00:38.425Z,8.37
2018-07-14T16:03:07.447Z,6.43
2018-07-14T16:05:39.701Z,7.20
2018-07-14T16:08:08.718Z,8.77
2018-07-14T16:10:37.494Z,8.77
2018-07-14T16:13:06.338Z,11.73
2018-07-14T16:15:35.287Z,7.67
2018-07-14T16:18:04.052Z,8.83
2018-07-14T16:20:32.806Z,7.80
2018-07-14T16:23:01.934Z,5.90
2018-07-14T16:25:30.743Z,16.90
2018-07-14T16:27:59.586Z,12.40
2018-07-14T16:30:28.337Z,8.40
2018-07-14T16:32:57.132Z,11.40
2018-07-14T16:35:25.874Z,10.87
2018-07-14T16:37:54.603Z,10.53
2018-07-14T16:40:23.326Z,7.23
2018-07-14T16:42:52.104Z,7.53
2018-07-14T16:45:20.818Z,7.03
2018-07-14T16:47:49.552Z,5.43
2018-07-14T16:50:18.571Z,7.67
2018-07-14T16:52:47.287Z,6.33
2018-07-14T16:55:16.074Z,13.23
2018-07-14T16:57:44.832Z,14.30
2018-07-14T17:00:13.598Z,19.40
2018-07-14T17:02:42.323Z,21.70
2018-07-14T17:05:11.049Z,10.07
2018-07-14T17:07:39.835Z,15.87
2018-07-14T17:10:08.569Z,16.70
2018-07-14T17:12:37.269Z,6.57
2018-07-14T17:15:05.994Z,14.60
2018-07-14T17:17:34.736Z,5.93
2018-07-14T17:20:03.496Z,10.60
2018-07-14T17:22:32.271Z,7.00
2018-07-14T17:25:00.979Z,9.93
2018-07-14T17:27:29.674Z,6.77
2018-07-14T17:29:58.425Z,16.67
2018-07-14T17:32:27.156Z,9.67
2018-07-14T17:34:55.863Z,12.43
2018-07-14T17:37:24.603Z,39.57
2018-07-14T17:39:53.346Z,6.60
2018-07-14T17:42:22.274Z,13.50
2018-07-14T17:44:51.099Z,22.13
2018-07-14T17:47:20.302Z,14.50
2018-07-14T17:49:49.118Z,20.40
2018-07-14T17:52:17.921Z,10.43
2018-07-14T17:54:46.657Z,24.43
2018-07-14T17:57:15.377Z,7.60
2018-07-14T17:59:44.133Z,10.50
2018-07-14T18:02:12.923Z,11.70
2018-07-14T18:04:41.802Z,12.77
2018-07-14T18:07:10.583Z,8.60
2018-07-14T18:09:39.454Z,9.60
2018-07-14T18:12:08.146Z,19.77
2018-07-14T18:14:37.019Z,12.00
2018-07-14T18:17:06.226Z,12.93
2018-07-14T18:19:35.029Z,8.07
2018-07-14T18:22:03.755Z,10.97
2018-07-14T18:24:32.463Z,6.13
2018-07-14T18:27:01.530Z,10.83
2018-07-14T18:29:30.288Z,6.93
2018-07-14T18:31:59.015Z,10.13
2018-07-14T18:34:27.770Z,12.37
2018-07-14T18:36:56.485Z,6.47
2018-07-14T18:39:25.310Z,13.27
2018-07-14T18:41:54.292Z,9.20
2018-07-14T18:44:23.195Z,31.27
2018-07-14T18:46:51.926Z,16.57
2018-07-14T18:49:20.709Z,20.53
2018-07-14T18:51:49.682Z,22.03
2018-07-14T18:54:18.388Z,14.90
2018-07-14T18:56:47.133Z,62.47
2018-07-14T18:59:15.882Z,28.50
2018-07-14T19:01:44.625Z,27.63
2018-07-14T19:04:13.498Z,40.40
2018-07-14T19:06:42.354Z,72.67
2018-07-14T19:09:11.235Z,63.93
2018-07-14T19:11:39.982Z,72.73
2018-07-14T19:14:08.720Z,68.93
2018-07-14T19:16:37.518Z,89.43
2018-07-14T19:19:06.358Z,80.97
2018-07-14T19:21:35.123Z,57.80
2018-07-14T19:24:03.902Z,48.87
2018-07-14T19:26:32.737Z,39.90
2018-07-14T19:29:01.490Z,34.83
2018-07-14T19:31:30.429Z,37.43
2018-07-14T19:33:59.266Z,41.70
2018-07-14T19:36:28.043Z,37.40
2018-07-14T19:38:56.969Z,20.37
2018-07-14T19:41:25.798Z,23.40
2018-07-14T19:43:54.754Z,10.73
2018-07-14T19:46:23.521Z,9.83
2018-07-14T19:48:52.319Z,12.13
2018-07-14T19:51:21.105Z,8.57
2018-07-14T19:53:49.960Z,12.63
2018-07-14T19:56:18.882Z,17.50
2018-07-14T19:58:47.649Z,23.97
2018-07-14T20:01:16.461Z,24.33
2018-07-14T20:03:45.193Z,16.70
2018-07-14T20:06:14.026Z,18.93
2018-07-14T20:08:42.759Z,6.10
2018-07-14T20:11:11.564Z,10.10
2018-07-14T20:13:40.378Z,10.70
2018-07-14T20:16:10.402Z,18.20
2018-07-14T20:18:40.202Z,17.00
2018-07-14T20:21:09.546Z,17.53
2018-07-14T20:23:38.736Z,25.17
2018-07-14T20:26:07.938Z,24.07
2018-07-14T20:28:37.150Z,13.43
2018-07-14T20:31:06.335Z,28.20
2018-07-14T20:33:35.541Z,26.63
2018-07-14T20:36:04.813Z,11.63
2018-07-14T20:38:34.141Z,7.47
2018-07-14T20:41:03.445Z,12.77
2018-07-14T20:43:32.725Z,6.00
2018-07-14T20:46:01.859Z,12.43
2018-07-14T20:48:30.861Z,11.00
2018-07-14T20:50:59.794Z,10.93
2018-07-14T20:53:29.127Z,9.97
2018-07-14T20:55:58.210Z,9.07
2018-07-14T20:58:27.511Z,8.00
2018-07-14T21:00:56.598Z,7.27
2018-07-14T21:03:25.830Z,22.23
2018-07-14T21:05:55.242Z,8.03
2018-07-14T21:08:24.515Z,14.40
2018-07-14T21:10:53.754Z,6.43
2018-07-14T21:13:22.736Z,10.40
2018-07-14T21:15:51.898Z,11.40
2018-07-14T21:18:21.109Z,9.00
2018-07-14T21:20:50.306Z,6.23
2018-07-14T21:23:19.501Z,16.53
2018-07-14T21:25:48.795Z,11.73
2018-07-14T21:28:18.074Z,8.43
2018-07-14T21:30:47.202Z,17.70
2018-07-14T21:33:16.403Z,13.03
2018-07-14T21:35:45.611Z,17.03
2018-07-14T21:38:14.861Z,23.73
2018-07-14T21:40:43.778Z,29.43
2018-07-14T21:43:13.086Z,28.40
2018-07-14T21:45:42.101Z,22.80
2018-07-14T21:48:11.323Z,21.13
2018-07-14T21:50:40.504Z,18.60
2018-07-14T21:53:09.670Z,10.90
2018-07-14T21:55:38.915Z,9.70
2018-07-14T21:58:08.056Z,25.97
2018-07-14T22:00:42.314Z,17.63
2018-07-14T22:03:11.566Z,17.50
2018-07-14T22:05:40.698Z,13.17
2018-07-14T22:08:09.990Z,22.00
2018-07-14T22:10:39.192Z,18.30
2018-07-14T22:13:08.390Z,11.27
2018-07-14T22:15:37.575Z,18.23
2018-07-14T22:18:06.804Z,16.07
2018-07-14T22:20:36.069Z,20.57
2018-07-14T22:23:05.116Z,29.33
2018-07-14T22:25:34.198Z,17.00
2018-07-14T22:28:03.069Z,17.43
2018-07-14T22:30:32.106Z,15.37
2018-07-14T22:33:01.346Z,32.03
2018-07-14T22:35:30.537Z,24.00
2018-07-14T22:37:59.745Z,26.10
2018-07-14T22:40:28.943Z,13.63
2018-07-14T22:42:58.164Z,13.93
2018-07-14T22:45:27.615Z,16.93
2018-07-14T22:47:56.646Z,14.33
2018-07-14T22:50:25.932Z,22.00
2018-07-14T22:52:55.146Z,25.00
2018-07-14T22:55:24.523Z,28.10
2018-07-14T22:57:53.733Z,14.50
2018-07-14T23:00:22.933Z,15.40
2018-07-14T23:02:52.145Z,16.40
2018-07-14T23:05:21.490Z,17.60
2018-07-14T23:07:50.678Z,15.20
2018-07-14T23:10:19.826Z,20.80
2018-07-14T23:12:49.046Z,14.87
2018-07-14T23:15:18.083Z,17.50
2018-07-14T23:17:47.244Z,18.00
2018-07-14T23:20:16.429Z,16.03
2018-07-14T23:22:45.729Z,17.77
2018-07-14T23:25:15.021Z,12.90
2018-07-14T23:27:44.117Z,12.80
2018-07-14T23:30:13.308Z,9.23
2018-07-14T23:32:42.552Z,14.93
2018-07-14T23:35:11.710Z,10.93
2018-07-14T23:37:40.909Z,14.13
2018-07-14T23:40:10.193Z,14.60
2018-07-14T23:42:39.098Z,16.27
2018-07-14T23:45:08.377Z,23.43
2018-07-14T23:47:37.294Z,22.57
2018-07-14T23:50:06.491Z,15.87
2018-07-14T23:52:35.696Z,22.93
2018-07-14T23:55:05.019Z,15.90
2018-07-14T23:57:34.217Z,16.10
